Austin, Texas
Current Conditions -  °F | °C
As of 4:51 PM on Monday 22 Dec 2014 (Local Time) from KATT Reporting Station
Clear Clear  
Wind Chill: 68°   Ceiling: Unl
Heat Index: 68°   Visibility: 10mi
Dew Point: 56°   Wind: 0mph
Humidity: 65%   Direction: NA
Pressure: 29.62"   Gusts: NA
Location:  30.27°N, 97.74°W
Report Text: KATT 222251Z AUTO 00000KT 10SM CLR 20/13 A2962 RMK AO2 SLP024 T02000133
Loading
Personal Weather Stations






























Interactive Weather Map New forecast layout! Learn more

10-Day Weather Forecast

Advertisements
Track Severe Weather on mobile